createdAt,value
2016-08-12T00:00:32.626Z,19.96
2016-08-12T00:01:28.624Z,19.97
2016-08-12T00:02:32.498Z,19.97
2016-08-12T00:04:33.906Z,19.97
2016-08-12T00:05:42.266Z,19.96
2016-08-12T00:06:32.332Z,19.98
2016-08-12T00:07:39.189Z,19.98
2016-08-12T00:08:41.563Z,19.99
2016-08-12T00:09:40.239Z,20.00
2016-08-12T00:10:46.490Z,19.99
2016-08-12T00:11:27.636Z,19.99
2016-08-12T00:12:36.623Z,19.98
2016-08-12T00:13:33.447Z,19.98
2016-08-12T00:14:37.804Z,19.98
2016-08-12T00:15:34.330Z,19.98
2016-08-12T00:16:38.137Z,19.98
2016-08-12T00:17:29.181Z,19.98
2016-08-12T00:18:48.145Z,19.98
2016-08-12T00:19:39.695Z,19.99
2016-08-12T00:20:31.452Z,19.98
2016-08-12T00:21:23.224Z,19.98
2016-08-12T00:22:33.991Z,19.98
2016-08-12T00:23:28.037Z,19.99
2016-08-12T00:24:39.268Z,19.98
2016-08-12T00:25:40.723Z,19.98
2016-08-12T00:26:32.213Z,19.99
2016-08-12T00:27:25.194Z,19.98
2016-08-12T00:29:26.090Z,19.99
2016-08-12T00:30:40.399Z,20.00
2016-08-12T00:31:36.617Z,20.00
2016-08-12T00:32:36.865Z,20.01
2016-08-12T00:33:31.113Z,19.99
2016-08-12T00:34:31.542Z,19.99
2016-08-12T00:35:32.204Z,19.98
2016-08-12T00:36:42.304Z,19.98
2016-08-12T00:38:29.018Z,20.06
2016-08-12T00:40:43.925Z,19.99
2016-08-12T00:41:33.380Z,19.99
2016-08-12T00:42:45.337Z,19.99
2016-08-12T00:43:42.879Z,19.99
2016-08-12T00:44:40.881Z,19.99
2016-08-12T00:45:32.778Z,19.98
2016-08-12T00:46:36.697Z,19.99
2016-08-12T00:47:27.956Z,19.98
2016-08-12T00:48:37.545Z,19.98
2016-08-12T00:49:33.556Z,19.98
2016-08-12T00:50:34.125Z,19.98
2016-08-12T00:51:28.874Z,19.98
2016-08-12T00:52:42.373Z,19.96
2016-08-12T00:53:26.725Z,19.97
2016-08-12T00:54:27.480Z,19.98
2016-08-12T00:55:38.409Z,19.97
2016-08-12T00:56:37.396Z,19.98
2016-08-12T00:57:30.239Z,19.98
2016-08-12T00:58:37.325Z,19.97
2016-08-12T00:59:31.224Z,19.97
2016-08-12T01:00:44.492Z,19.99
2016-08-12T01:01:38.298Z,19.98
2016-08-12T01:02:34.855Z,19.98
2016-08-12T01:03:46.484Z,19.97
2016-08-12T01:04:43.312Z,20.49
2016-08-12T01:05:32.396Z,20.00
2016-08-12T01:06:38.185Z,20.01
2016-08-12T01:07:36.906Z,20.01
2016-08-12T01:08:48.763Z,19.98
2016-08-12T01:09:35.778Z,19.99
2016-08-12T01:11:40.117Z,19.98
2016-08-12T01:12:30.430Z,19.97
2016-08-12T01:13:32.595Z,20.51
2016-08-12T01:14:31.143Z,20.21
2016-08-12T01:15:36.824Z,20.06
2016-08-12T01:16:32.931Z,20.02
2016-08-12T01:17:32.371Z,20.00
2016-08-12T01:18:37.464Z,19.99
2016-08-12T01:19:43.160Z,19.99
2016-08-12T01:20:32.297Z,19.98
2016-08-12T01:21:28.010Z,19.98
2016-08-12T01:22:34.339Z,19.97
2016-08-12T01:23:40.148Z,19.98
2016-08-12T01:24:40.053Z,19.98
2016-08-12T01:25:41.186Z,19.99
2016-08-12T01:26:33.160Z,19.98
2016-08-12T01:27:35.780Z,19.97
2016-08-12T01:28:37.338Z,19.98
2016-08-12T01:29:32.418Z,20.50
2016-08-12T01:31:27.149Z,20.56
2016-08-12T01:34:35.187Z,19.99
2016-08-12T01:35:31.058Z,19.96
2016-08-12T01:36:40.899Z,19.96
2016-08-12T01:37:38.069Z,19.94
2016-08-12T01:38:42.508Z,19.93
2016-08-12T01:39:42.375Z,19.93
2016-08-12T01:40:38.300Z,19.94
2016-08-12T01:41:26.565Z,19.93
2016-08-12T01:42:31.848Z,19.93
2016-08-12T01:45:40.176Z,19.92
2016-08-12T01:46:43.376Z,19.93
2016-08-12T01:49:33.228Z,19.93
2016-08-12T01:50:53.710Z,19.93
2016-08-12T01:51:21.186Z,19.93
2016-08-12T01:52:32.440Z,19.94
2016-08-12T01:53:32.581Z,19.93
2016-08-12T01:56:38.901Z,19.92
2016-08-12T01:57:32.215Z,19.92
2016-08-12T01:58:50.711Z,19.93
2016-08-12T01:59:38.358Z,19.93
2016-08-12T02:00:41.916Z,19.93
2016-08-12T02:01:27.844Z,19.93
2016-08-12T02:02:31.731Z,19.92
2016-08-12T02:04:27.406Z,19.92
2016-08-12T02:05:38.241Z,19.92
2016-08-12T02:06:33.396Z,19.93
2016-08-12T02:07:31.970Z,19.91
2016-08-12T02:08:41.120Z,19.91
2016-08-12T02:09:32.627Z,19.92
2016-08-12T02:10:38.480Z,19.93
2016-08-12T02:11:32.321Z,19.92
2016-08-12T02:12:31.820Z,19.93
2016-08-12T02:13:37.973Z,19.96
2016-08-12T02:14:32.225Z,19.94
2016-08-12T02:15:32.011Z,19.94
2016-08-12T02:16:32.907Z,19.94
2016-08-12T02:17:33.575Z,19.94
2016-08-12T02:18:32.183Z,19.94
2016-08-12T02:19:39.741Z,19.94
2016-08-12T02:20:42.244Z,19.95
2016-08-12T02:21:25.882Z,19.94
2016-08-12T02:22:37.732Z,19.94
2016-08-12T02:23:40.298Z,19.94
2016-08-12T02:24:31.212Z,19.95
2016-08-12T02:25:36.254Z,19.94
2016-08-12T02:26:32.382Z,19.94
2016-08-12T02:27:26.989Z,19.92
2016-08-12T02:28:28.572Z,19.93
2016-08-12T02:29:34.600Z,19.92
2016-08-12T02:30:40.193Z,19.92
2016-08-12T02:32:27.578Z,19.93
2016-08-12T02:33:18.408Z,19.95
2016-08-12T02:34:26.832Z,20.43
2016-08-12T02:35:34.271Z,20.50
2016-08-12T02:36:37.496Z,20.16
2016-08-12T02:37:27.380Z,20.00
2016-08-12T02:38:33.838Z,19.95
2016-08-12T02:39:36.414Z,19.94
2016-08-12T02:41:35.226Z,19.92
2016-08-12T02:42:31.187Z,19.91
2016-08-12T02:43:48.775Z,19.90
2016-08-12T02:47:40.350Z,19.93
2016-08-12T02:50:34.033Z,19.90
2016-08-12T02:51:24.180Z,19.89
2016-08-12T02:52:40.408Z,19.91
2016-08-12T02:53:35.781Z,19.92
2016-08-12T02:54:37.547Z,19.92
2016-08-12T02:55:38.003Z,19.92
2016-08-12T02:56:32.764Z,19.92
2016-08-12T02:57:26.641Z,19.92
2016-08-12T02:58:33.108Z,19.92
2016-08-12T02:59:37.433Z,19.91
2016-08-12T03:00:41.321Z,19.94
2016-08-12T03:01:47.979Z,19.91
2016-08-12T03:02:37.732Z,19.90
2016-08-12T03:04:35.432Z,19.91
2016-08-12T03:05:41.082Z,19.90
2016-08-12T03:06:33.283Z,19.91
2016-08-12T03:07:32.969Z,19.90
2016-08-12T03:08:42.814Z,19.90
2016-08-12T03:09:32.680Z,19.90
2016-08-12T03:10:38.044Z,19.90
2016-08-12T03:11:31.663Z,19.92
2016-08-12T03:12:34.796Z,19.90
2016-08-12T03:13:34.441Z,19.90
2016-08-12T03:14:44.614Z,19.89
2016-08-12T03:16:33.139Z,19.89
2016-08-12T03:17:33.180Z,19.89
2016-08-12T03:18:32.201Z,19.89
2016-08-12T03:19:36.606Z,19.90
2016-08-12T03:20:36.920Z,19.90
2016-08-12T03:21:31.904Z,19.89
2016-08-12T03:22:32.097Z,19.88
2016-08-12T03:23:50.393Z,19.88
2016-08-12T03:25:31.156Z,19.88
2016-08-12T03:26:37.412Z,19.88
2016-08-12T03:27:35.865Z,19.88
2016-08-12T03:28:32.994Z,19.88
2016-08-12T03:29:37.331Z,19.89
2016-08-12T03:30:37.084Z,19.88
2016-08-12T03:31:31.157Z,19.89
2016-08-12T03:32:36.551Z,19.88
2016-08-12T03:34:37.347Z,19.88
2016-08-12T03:35:33.982Z,19.88
2016-08-12T03:37:33.865Z,19.88
2016-08-12T03:38:36.180Z,19.88
2016-08-12T03:39:45.883Z,19.90
2016-08-12T03:40:33.529Z,19.92
2016-08-12T03:41:33.074Z,19.92
2016-08-12T03:42:43.012Z,19.94
2016-08-12T03:43:33.686Z,19.95
2016-08-12T03:44:31.973Z,19.94
2016-08-12T03:45:43.459Z,19.96
2016-08-12T03:46:33.071Z,19.96
2016-08-12T03:47:39.188Z,19.97
2016-08-12T03:48:35.865Z,19.99
2016-08-12T03:49:27.593Z,20.51
2016-08-12T03:50:35.814Z,20.56
2016-08-12T03:52:37.831Z,20.61
2016-08-12T03:53:38.171Z,20.62
2016-08-12T03:54:50.231Z,20.64
2016-08-12T03:55:31.634Z,20.12
2016-08-12T03:56:31.258Z,20.07
2016-08-12T03:57:35.613Z,20.03
2016-08-12T03:58:33.106Z,20.03
2016-08-12T03:59:41.197Z,20.02
2016-08-12T04:00:30.661Z,20.01
2016-08-12T04:02:31.971Z,20.01
2016-08-12T04:04:32.982Z,20.00
2016-08-12T04:06:32.665Z,20.01
2016-08-12T04:07:31.628Z,20.01
2016-08-12T04:08:34.883Z,20.00
2016-08-12T04:09:33.483Z,20.01
2016-08-12T04:10:37.978Z,20.01
2016-08-12T04:11:26.794Z,20.53
2016-08-12T04:12:36.233Z,20.59
2016-08-12T04:13:32.180Z,20.62
2016-08-12T04:14:33.482Z,20.64
2016-08-12T04:15:36.626Z,20.64
2016-08-12T04:16:33.548Z,20.64
2016-08-12T04:18:43.033Z,20.64
2016-08-12T04:19:36.383Z,20.66
2016-08-12T04:20:35.117Z,20.65
2016-08-12T04:21:28.922Z,20.29
2016-08-12T04:22:39.097Z,20.12
2016-08-12T04:23:33.506Z,20.10
2016-08-12T04:24:31.171Z,20.04
2016-08-12T04:25:40.177Z,20.03
2016-08-12T04:26:41.626Z,20.03
2016-08-12T04:27:33.394Z,20.02
2016-08-12T04:28:43.602Z,20.01
2016-08-12T04:29:34.802Z,20.54
2016-08-12T04:30:32.454Z,20.60
2016-08-12T04:31:33.099Z,20.10
2016-08-12T04:32:33.312Z,20.04
2016-08-12T04:33:40.359Z,20.02
2016-08-12T04:34:41.773Z,20.02
2016-08-12T04:35:44.784Z,20.02
2016-08-12T04:36:34.958Z,20.01
2016-08-12T04:37:37.243Z,20.01
2016-08-12T04:38:33.674Z,20.01
2016-08-12T04:39:31.879Z,20.02
2016-08-12T04:40:42.754Z,20.03
2016-08-12T04:41:30.665Z,20.04
2016-08-12T04:42:32.761Z,20.05
2016-08-12T04:43:45.372Z,20.06
2016-08-12T04:44:41.869Z,20.06
2016-08-12T04:45:36.761Z,20.05
2016-08-12T04:46:33.344Z,20.05
2016-08-12T04:48:33.797Z,20.07
2016-08-12T04:49:32.499Z,20.07
2016-08-12T04:50:26.575Z,20.07
2016-08-12T04:51:23.237Z,20.07
2016-08-12T04:52:32.990Z,20.08
2016-08-12T04:53:34.270Z,20.10
2016-08-12T04:55:41.628Z,20.10
2016-08-12T04:56:31.465Z,20.09
2016-08-12T04:57:32.257Z,20.08
2016-08-12T04:58:33.049Z,20.10
2016-08-12T04:59:42.903Z,20.09
2016-08-12T05:00:36.701Z,20.08
2016-08-12T05:01:36.789Z,20.09
2016-08-12T05:02:27.457Z,20.09
2016-08-12T05:03:29.265Z,20.09
2016-08-12T05:04:33.970Z,20.09
2016-08-12T05:05:33.534Z,20.09
2016-08-12T05:07:30.457Z,20.08
2016-08-12T05:08:36.411Z,20.09
2016-08-12T05:09:32.374Z,20.08
2016-08-12T05:10:32.337Z,20.07
2016-08-12T05:11:38.671Z,20.08
2016-08-12T05:12:32.127Z,20.07
2016-08-12T05:13:27.264Z,20.07
2016-08-12T05:15:38.817Z,20.05
2016-08-12T05:16:57.640Z,20.04
2016-08-12T05:17:45.946Z,20.05
2016-08-12T05:18:40.225Z,20.04
2016-08-12T05:19:31.151Z,20.04
2016-08-12T05:20:32.072Z,20.04
2016-08-12T05:21:40.047Z,20.04
2016-08-12T05:22:22.701Z,20.03
2016-08-12T05:23:31.663Z,20.58
2016-08-12T05:24:38.207Z,20.63
2016-08-12T05:25:37.056Z,20.66
2016-08-12T05:26:33.652Z,20.30
2016-08-12T05:27:41.285Z,20.14
2016-08-12T05:28:29.636Z,20.08
2016-08-12T05:29:39.826Z,20.06
2016-08-12T05:30:34.953Z,20.04
2016-08-12T05:32:37.735Z,20.05
2016-08-12T05:33:32.748Z,20.04
2016-08-12T05:34:37.339Z,20.03
2016-08-12T05:35:36.721Z,20.03
2016-08-12T05:36:33.630Z,20.04
2016-08-12T05:37:31.711Z,20.03
2016-08-12T05:38:18.177Z,20.03
2016-08-12T05:39:32.603Z,20.03
2016-08-12T05:40:29.117Z,20.04
2016-08-12T05:41:22.425Z,20.04
2016-08-12T05:42:25.886Z,20.05
2016-08-12T05:43:29.113Z,20.04
2016-08-12T05:44:33.043Z,20.05
2016-08-12T05:45:33.658Z,20.06
2016-08-12T05:46:32.259Z,20.05
2016-08-12T05:47:44.465Z,20.05
2016-08-12T05:48:32.863Z,20.07
2016-08-12T05:49:31.737Z,20.06
2016-08-12T05:50:27.927Z,20.06
2016-08-12T05:51:26.467Z,20.07
2016-08-12T05:52:29.867Z,20.06
2016-08-12T05:53:37.458Z,20.06
2016-08-12T05:54:32.096Z,20.06
2016-08-12T05:55:37.629Z,20.60
2016-08-12T05:56:37.145Z,20.64
2016-08-12T05:57:26.192Z,20.67
2016-08-12T05:58:27.536Z,20.69
2016-08-12T05:59:32.850Z,20.71
2016-08-12T06:00:37.262Z,20.71
2016-08-12T06:01:32.926Z,20.71
2016-08-12T06:02:34.522Z,20.34
2016-08-12T06:03:30.424Z,20.17
2016-08-12T06:04:28.775Z,20.13
2016-08-12T06:05:27.089Z,20.11
2016-08-12T06:07:38.234Z,20.09
2016-08-12T06:08:37.111Z,20.08
2016-08-12T06:09:37.189Z,20.08
2016-08-12T06:11:34.886Z,20.10
2016-08-12T06:12:28.669Z,20.07
2016-08-12T06:13:39.663Z,20.08
2016-08-12T06:14:32.203Z,20.08
2016-08-12T06:15:38.160Z,20.07
2016-08-12T06:16:31.359Z,20.09
2016-08-12T06:17:28.306Z,20.08
2016-08-12T06:18:32.599Z,20.08
2016-08-12T06:20:37.339Z,20.09
2016-08-12T06:21:27.731Z,20.11
2016-08-12T06:22:41.488Z,20.11
2016-08-12T06:23:26.774Z,20.12
2016-08-12T06:24:23.144Z,20.11
2016-08-12T06:25:26.055Z,20.12
2016-08-12T06:26:34.351Z,20.11
2016-08-12T06:27:31.822Z,20.10
2016-08-12T06:28:20.566Z,20.09
2016-08-12T06:29:28.667Z,20.09
2016-08-12T06:30:32.039Z,20.10
2016-08-12T06:31:20.948Z,20.08
2016-08-12T06:32:31.971Z,20.09
2016-08-12T06:33:34.397Z,20.10
2016-08-12T06:34:42.868Z,20.08
2016-08-12T06:35:32.193Z,20.07
2016-08-12T06:36:28.137Z,20.06
2016-08-12T06:37:35.304Z,20.06
2016-08-12T06:38:37.116Z,20.04
2016-08-12T06:39:21.351Z,20.04
2016-08-12T06:40:36.925Z,20.03
2016-08-12T06:41:36.696Z,20.06
2016-08-12T06:43:32.937Z,20.61
2016-08-12T06:44:28.134Z,20.63
2016-08-12T06:45:37.714Z,20.65
2016-08-12T06:46:33.368Z,20.65
2016-08-12T06:47:35.045Z,20.65
2016-08-12T06:48:28.606Z,20.64
2016-08-12T06:49:32.714Z,20.65
2016-08-12T06:50:32.821Z,20.64
2016-08-12T06:51:29.756Z,20.32
2016-08-12T06:52:42.754Z,20.11
2016-08-12T06:53:37.065Z,20.04
2016-08-12T06:54:31.847Z,20.04
2016-08-12T06:55:33.357Z,20.01
2016-08-12T06:56:35.115Z,20.00
2016-08-12T06:57:34.158Z,19.98
2016-08-12T06:58:30.822Z,19.99
2016-08-12T06:59:35.548Z,19.98
2016-08-12T07:00:26.305Z,19.99
2016-08-12T07:01:41.248Z,19.97
2016-08-12T07:02:33.199Z,19.98
2016-08-12T07:03:32.601Z,19.96
2016-08-12T07:05:31.264Z,19.96
2016-08-12T07:06:33.394Z,19.97
2016-08-12T07:07:33.511Z,19.95
2016-08-12T07:08:34.878Z,19.96
2016-08-12T07:09:30.214Z,19.95
2016-08-12T07:10:40.579Z,19.95
2016-08-12T07:11:31.276Z,19.97
2016-08-12T07:12:29.596Z,19.96
2016-08-12T07:13:37.696Z,19.96
2016-08-12T07:14:32.034Z,19.96
2016-08-12T07:15:30.751Z,19.95
2016-08-12T07:16:31.737Z,19.96
2016-08-12T07:17:28.040Z,19.97
2016-08-12T07:18:33.038Z,19.98
2016-08-12T07:20:30.070Z,19.99
2016-08-12T07:21:25.068Z,20.01
2016-08-12T07:22:35.942Z,20.01
2016-08-12T07:23:26.026Z,20.02
2016-08-12T07:24:31.311Z,20.02
2016-08-12T07:25:37.514Z,20.03
2016-08-12T07:26:43.559Z,20.04
2016-08-12T07:27:25.957Z,20.04
2016-08-12T07:28:22.089Z,20.04
2016-08-12T07:29:30.234Z,20.05
2016-08-12T07:30:30.806Z,20.06
2016-08-12T07:31:28.009Z,20.06
2016-08-12T07:32:30.294Z,20.06
2016-08-12T07:33:34.844Z,20.06
2016-08-12T07:34:33.864Z,20.06
2016-08-12T07:35:33.624Z,20.06
2016-08-12T07:36:32.548Z,20.06
2016-08-12T07:37:24.324Z,20.06
2016-08-12T07:38:32.184Z,20.04
2016-08-12T07:39:37.590Z,20.13
2016-08-12T07:40:33.772Z,20.59
2016-08-12T07:41:31.030Z,20.66
2016-08-12T07:42:33.749Z,20.38
2016-08-12T07:43:35.904Z,20.18
2016-08-12T07:44:27.908Z,20.14
2016-08-12T07:45:22.106Z,20.12
2016-08-12T07:46:27.024Z,20.10
2016-08-12T07:47:32.170Z,20.10
2016-08-12T07:48:29.656Z,20.10
2016-08-12T07:50:31.187Z,20.11
2016-08-12T07:51:33.222Z,20.11
2016-08-12T07:52:23.506Z,20.12
2016-08-12T07:53:27.133Z,20.12
2016-08-12T07:54:26.011Z,20.14
2016-08-12T07:55:32.142Z,20.11
2016-08-12T07:56:25.584Z,20.11
2016-08-12T07:57:30.405Z,20.10
2016-08-12T07:58:27.324Z,20.10
2016-08-12T07:59:21.061Z,20.10
2016-08-12T08:00:25.106Z,20.10
2016-08-12T08:01:43.078Z,20.10
2016-08-12T08:02:23.623Z,20.11
2016-08-12T08:03:28.251Z,20.10
2016-08-12T08:04:19.471Z,20.08
2016-08-12T08:05:32.008Z,20.06
2016-08-12T08:06:25.908Z,20.07
2016-08-12T08:07:35.105Z,20.07
2016-08-12T08:08:27.619Z,20.07
2016-08-12T08:09:21.184Z,20.08
2016-08-12T08:10:34.362Z,20.13
2016-08-12T08:11:31.862Z,20.10
2016-08-12T08:12:33.479Z,20.11
2016-08-12T08:13:26.769Z,20.12
2016-08-12T08:14:34.272Z,20.12
2016-08-12T08:15:16.809Z,20.14
2016-08-12T08:16:33.235Z,20.13
2016-08-12T08:17:26.749Z,20.15
2016-08-12T08:18:32.083Z,20.16
2016-08-12T08:19:19.981Z,20.23
2016-08-12T08:20:25.847Z,20.15
2016-08-12T08:21:32.453Z,20.15
2016-08-12T08:22:28.367Z,20.16
2016-08-12T08:23:34.808Z,20.15
2016-08-12T08:24:28.297Z,20.15
2016-08-12T08:25:38.775Z,20.14
2016-08-12T08:26:25.399Z,20.14
2016-08-12T08:27:23.183Z,20.14
2016-08-12T08:28:31.757Z,20.14
2016-08-12T08:29:30.499Z,20.15
2016-08-12T08:30:25.955Z,20.15
2016-08-12T08:31:30.473Z,20.14
2016-08-12T08:32:22.288Z,20.17
2016-08-12T08:33:30.523Z,20.13
2016-08-12T08:34:30.762Z,20.13
2016-08-12T08:36:30.149Z,20.12
2016-08-12T08:37:31.402Z,20.10
2016-08-12T08:38:27.821Z,20.09
2016-08-12T08:39:28.207Z,20.09
2016-08-12T08:40:30.852Z,20.09
2016-08-12T08:41:30.606Z,20.10
2016-08-12T08:42:27.838Z,20.08
2016-08-12T08:43:32.257Z,20.09
2016-08-12T08:44:37.920Z,20.09
2016-08-12T08:45:31.402Z,20.07
2016-08-12T08:46:30.210Z,20.08
2016-08-12T08:47:34.196Z,20.07
2016-08-12T08:48:30.115Z,20.07
2016-08-12T08:49:31.182Z,20.08
2016-08-12T08:50:26.954Z,20.08
2016-08-12T08:51:33.222Z,20.59
2016-08-12T08:52:31.648Z,20.66
2016-08-12T08:53:25.706Z,20.68
2016-08-12T08:54:33.810Z,20.68
2016-08-12T08:55:31.408Z,20.68
2016-08-12T08:56:25.822Z,20.68
2016-08-12T08:57:27.766Z,20.15
2016-08-12T08:58:30.190Z,20.10
2016-08-12T08:59:34.619Z,20.09
2016-08-12T09:00:32.235Z,20.09
2016-08-12T09:01:37.149Z,20.08
2016-08-12T09:02:23.543Z,20.07
2016-08-12T09:03:32.480Z,20.06
2016-08-12T09:04:40.374Z,20.04
2016-08-12T09:05:31.648Z,20.04
2016-08-12T09:06:27.307Z,20.04
2016-08-12T09:07:25.583Z,20.04
2016-08-12T09:09:25.279Z,20.05
2016-08-12T09:10:33.109Z,20.04
2016-08-12T09:11:36.519Z,20.05
2016-08-12T09:13:35.347Z,20.07
2016-08-12T09:14:36.008Z,20.05
2016-08-12T09:15:31.550Z,20.07
2016-08-12T09:16:31.842Z,20.07
2016-08-12T09:17:37.143Z,20.08
2016-08-12T09:18:32.390Z,20.08
2016-08-12T09:19:38.095Z,20.07
2016-08-12T09:20:33.838Z,20.06
2016-08-12T09:21:33.270Z,20.06
2016-08-12T09:22:30.960Z,20.05
2016-08-12T09:23:31.180Z,20.05
2016-08-12T09:24:32.413Z,20.05
2016-08-12T09:25:36.251Z,20.04
2016-08-12T09:26:25.919Z,20.04
2016-08-12T09:27:25.482Z,20.04
2016-08-12T09:29:33.358Z,20.04
2016-08-12T09:31:45.414Z,20.04
2016-08-12T09:33:32.363Z,20.06
2016-08-12T09:34:32.293Z,20.04
2016-08-12T09:35:38.115Z,20.05
2016-08-12T09:36:24.020Z,20.06
2016-08-12T09:37:26.896Z,20.05
2016-08-12T09:38:27.596Z,20.06
2016-08-12T09:39:31.940Z,20.07
2016-08-12T09:40:25.403Z,20.06
2016-08-12T09:41:45.997Z,20.06
2016-08-12T09:43:32.901Z,20.07
2016-08-12T09:44:25.416Z,20.08
2016-08-12T09:45:24.880Z,20.08
2016-08-12T09:46:29.819Z,20.08
2016-08-12T09:47:26.059Z,20.06
2016-08-12T09:48:25.947Z,20.06
2016-08-12T09:49:25.833Z,20.08
2016-08-12T09:50:37.920Z,20.08
2016-08-12T09:51:31.467Z,20.09
2016-08-12T09:52:26.785Z,20.10
2016-08-12T09:54:38.934Z,20.10
2016-08-12T09:55:43.617Z,20.11
2016-08-12T09:56:34.924Z,20.11
2016-08-12T09:57:32.077Z,20.13
2016-08-12T09:58:29.836Z,20.14
2016-08-12T09:59:25.802Z,20.15
2016-08-12T10:00:37.116Z,20.16
2016-08-12T10:01:25.423Z,20.16
2016-08-12T10:02:27.022Z,20.16
2016-08-12T10:03:20.929Z,20.17
2016-08-12T10:04:25.520Z,20.17
2016-08-12T10:05:27.755Z,20.17
2016-08-12T10:06:28.381Z,20.17
2016-08-12T10:07:34.770Z,20.17
2016-08-12T10:08:35.421Z,20.18
2016-08-12T10:09:31.897Z,20.18
2016-08-12T10:10:32.182Z,20.19
2016-08-12T10:11:29.613Z,20.20
2016-08-12T10:12:26.318Z,20.19
2016-08-12T10:13:26.773Z,20.18
2016-08-12T10:14:32.711Z,20.19
2016-08-12T10:15:27.864Z,20.19
2016-08-12T10:16:37.048Z,20.21
2016-08-12T10:17:33.895Z,20.21
2016-08-12T10:18:36.949Z,20.21
2016-08-12T10:19:30.456Z,20.20
2016-08-12T10:21:31.805Z,20.20
2016-08-12T10:22:31.548Z,20.21
2016-08-12T10:23:39.397Z,20.21
2016-08-12T10:24:32.257Z,20.21
2016-08-12T10:25:32.426Z,20.21
2016-08-12T10:26:41.694Z,20.21
2016-08-12T10:27:37.360Z,20.20
2016-08-12T10:28:33.228Z,20.19
2016-08-12T10:29:26.268Z,20.19
2016-08-12T10:30:27.575Z,20.18
2016-08-12T10:31:52.879Z,20.18
2016-08-12T10:32:42.548Z,20.17
2016-08-12T10:33:25.909Z,20.16
2016-08-12T10:34:31.718Z,20.15
2016-08-12T10:35:26.554Z,20.16
2016-08-12T10:36:32.413Z,20.15
2016-08-12T10:37:48.025Z,20.16
2016-08-12T10:38:28.010Z,20.15
2016-08-12T10:39:41.747Z,20.17
2016-08-12T10:40:20.738Z,20.17
2016-08-12T10:41:24.415Z,20.16
2016-08-12T10:42:34.857Z,20.15
2016-08-12T10:43:26.322Z,20.16
2016-08-12T10:44:40.256Z,20.16
2016-08-12T10:46:32.093Z,20.16
2016-08-12T10:47:32.955Z,20.16
2016-08-12T10:48:34.575Z,20.16
2016-08-12T10:51:31.957Z,20.15
2016-08-12T10:52:38.499Z,20.16
2016-08-12T10:53:34.165Z,20.16
2016-08-12T10:54:26.295Z,20.15
2016-08-12T10:55:32.620Z,20.15
2016-08-12T10:56:33.239Z,20.16
2016-08-12T10:57:38.731Z,20.15
2016-08-12T10:58:39.310Z,20.14
2016-08-12T10:59:20.202Z,20.13
2016-08-12T11:00:23.134Z,20.14
2016-08-12T11:01:33.375Z,20.13
2016-08-12T11:02:28.645Z,20.13
2016-08-12T11:03:34.234Z,20.13
2016-08-12T11:04:36.888Z,20.13
2016-08-12T11:06:44.641Z,20.12
2016-08-12T11:07:33.181Z,20.11
2016-08-12T11:08:32.516Z,20.12
2016-08-12T11:09:30.470Z,20.11
2016-08-12T11:10:40.063Z,20.10
2016-08-12T11:11:25.544Z,20.11
2016-08-12T11:12:28.363Z,20.12
2016-08-12T11:14:38.817Z,20.14
2016-08-12T11:15:26.038Z,20.12
2016-08-12T11:16:34.907Z,20.12
2016-08-12T11:17:37.570Z,20.14
2016-08-12T11:18:33.444Z,20.11
2016-08-12T11:19:36.431Z,20.11
2016-08-12T11:20:44.611Z,20.12
2016-08-12T11:21:31.005Z,20.13
2016-08-12T11:23:27.526Z,20.14
2016-08-12T11:24:46.594Z,20.14
2016-08-12T11:25:25.636Z,20.13
2016-08-12T11:26:35.855Z,20.15
2016-08-12T11:27:34.616Z,20.15
2016-08-12T11:28:38.070Z,20.15
2016-08-12T11:29:37.344Z,20.14
2016-08-12T11:30:27.003Z,20.13
2016-08-12T11:31:27.007Z,20.14
2016-08-12T11:32:39.778Z,20.16
2016-08-12T11:33:33.136Z,20.66
2016-08-12T11:34:27.052Z,19.41
2016-08-12T11:35:28.295Z,20.74
2016-08-12T11:36:21.259Z,20.74
2016-08-12T11:37:44.831Z,20.74
2016-08-12T11:38:27.895Z,20.75
2016-08-12T11:39:27.014Z,20.75
2016-08-12T11:40:48.038Z,20.75
2016-08-12T11:41:25.685Z,20.76
2016-08-12T11:42:40.581Z,20.75
2016-08-12T11:43:26.948Z,20.23
2016-08-12T11:44:27.116Z,20.16
2016-08-12T11:45:40.650Z,20.14
2016-08-12T11:46:34.686Z,20.12
2016-08-12T11:47:46.187Z,20.11
2016-08-12T11:48:34.482Z,20.11
2016-08-12T11:49:31.933Z,20.11
2016-08-12T11:50:41.833Z,20.10
2016-08-12T11:51:31.637Z,20.11
2016-08-12T11:52:31.928Z,20.10
2016-08-12T11:53:38.806Z,20.11
2016-08-12T11:54:31.311Z,20.10
2016-08-12T11:55:38.811Z,20.10
2016-08-12T11:56:40.960Z,20.09
2016-08-12T11:57:31.738Z,20.10
2016-08-12T11:58:29.882Z,20.10
2016-08-12T11:59:30.971Z,20.10
2016-08-12T12:00:36.095Z,20.10
2016-08-12T12:01:33.446Z,20.10
2016-08-12T12:02:30.739Z,20.10
2016-08-12T12:03:33.876Z,20.15
2016-08-12T12:04:37.942Z,20.10
2016-08-12T12:05:24.668Z,20.10
2016-08-12T12:06:33.710Z,20.11
2016-08-12T12:08:38.339Z,20.12
2016-08-12T12:09:43.141Z,20.13
2016-08-12T12:10:45.238Z,20.13
2016-08-12T12:11:36.895Z,20.13
2016-08-12T12:12:26.687Z,20.14
2016-08-12T12:13:40.330Z,20.14
2016-08-12T12:14:45.345Z,20.14
2016-08-12T12:15:32.740Z,20.16
2016-08-12T12:16:34.118Z,20.16
2016-08-12T12:17:33.714Z,20.16
2016-08-12T12:19:33.695Z,20.16
2016-08-12T12:20:36.230Z,20.16
2016-08-12T12:21:32.524Z,20.17
2016-08-12T12:22:35.023Z,20.17
2016-08-12T12:23:30.833Z,20.17
2016-08-12T12:25:34.287Z,20.17
2016-08-12T12:26:31.711Z,20.18
2016-08-12T12:27:32.308Z,20.17
2016-08-12T12:28:24.461Z,20.17
2016-08-12T12:31:28.594Z,20.17
2016-08-12T12:32:42.216Z,20.17
2016-08-12T12:33:28.082Z,20.18
2016-08-12T12:34:22.003Z,20.17
2016-08-12T12:35:32.871Z,20.17
2016-08-12T12:36:34.159Z,20.17
2016-08-12T12:37:32.368Z,20.17
2016-08-12T12:38:33.767Z,20.18
2016-08-12T12:39:41.102Z,20.18
2016-08-12T12:40:36.022Z,20.18
2016-08-12T12:41:28.197Z,20.18
2016-08-12T12:42:33.011Z,20.18
2016-08-12T12:43:37.750Z,20.18
2016-08-12T12:44:41.809Z,20.18
2016-08-12T12:45:44.368Z,20.18
2016-08-12T12:47:38.580Z,20.18
2016-08-12T12:48:41.567Z,20.18
2016-08-12T12:50:40.829Z,20.19
2016-08-12T12:51:40.826Z,20.19
2016-08-12T12:52:48.118Z,20.19
2016-08-12T12:54:33.454Z,20.19
2016-08-12T12:55:26.489Z,20.18
2016-08-12T12:56:21.787Z,20.18
2016-08-12T12:57:27.578Z,20.19
2016-08-12T12:59:40.543Z,20.19
2016-08-12T13:00:27.228Z,20.19
2016-08-12T13:01:38.451Z,20.19
2016-08-12T13:02:28.924Z,20.19
2016-08-12T13:03:31.328Z,20.19
2016-08-12T13:04:35.064Z,20.23
2016-08-12T13:05:28.396Z,20.19
2016-08-12T13:06:36.617Z,20.18
2016-08-12T13:07:30.192Z,20.18
2016-08-12T13:09:38.047Z,20.18
2016-08-12T13:10:31.360Z,20.18
2016-08-12T13:11:30.970Z,20.17
2016-08-12T13:12:31.952Z,20.17
2016-08-12T13:13:34.864Z,20.17
2016-08-12T13:14:41.909Z,20.18
2016-08-12T13:15:34.234Z,20.17
2016-08-12T13:16:30.748Z,20.18
2016-08-12T13:17:46.667Z,20.17
2016-08-12T13:18:36.562Z,20.17
2016-08-12T13:19:28.430Z,20.18
2016-08-12T13:20:25.831Z,20.18
2016-08-12T13:21:32.127Z,20.18
2016-08-12T13:22:35.981Z,20.18
2016-08-12T13:23:28.157Z,20.18
2016-08-12T13:24:25.559Z,20.16
2016-08-12T13:25:35.091Z,20.17
2016-08-12T13:26:33.371Z,20.16
2016-08-12T13:27:26.227Z,20.15
2016-08-12T13:28:28.769Z,20.15
2016-08-12T13:29:46.358Z,20.14
2016-08-12T13:30:30.000Z,20.14
2016-08-12T13:32:31.205Z,20.13
2016-08-12T13:33:36.504Z,20.13
2016-08-12T13:34:26.249Z,20.11
2016-08-12T13:35:38.059Z,20.12
2016-08-12T13:36:28.337Z,20.15
2016-08-12T13:37:52.995Z,20.12
2016-08-12T13:38:29.005Z,20.12
2016-08-12T13:39:31.357Z,20.12
2016-08-12T13:40:31.968Z,20.12
2016-08-12T13:41:21.434Z,20.12
2016-08-12T13:42:36.855Z,20.12
2016-08-12T13:43:25.968Z,20.11
2016-08-12T13:44:26.370Z,20.12
2016-08-12T13:45:36.273Z,20.12
2016-08-12T13:46:45.940Z,20.11
2016-08-12T13:47:51.597Z,20.11
2016-08-12T13:48:40.951Z,20.10
2016-08-12T13:49:31.171Z,20.10
2016-08-12T13:50:38.325Z,20.10
2016-08-12T13:51:31.275Z,20.10
2016-08-12T13:52:26.760Z,20.11
2016-08-12T13:53:37.271Z,20.11
2016-08-12T13:55:31.343Z,20.11
2016-08-12T13:56:31.122Z,20.12
2016-08-12T13:57:26.345Z,20.11
2016-08-12T13:58:26.152Z,20.11
2016-08-12T14:00:26.465Z,20.12
2016-08-12T14:01:30.644Z,20.12
2016-08-12T14:02:46.865Z,20.12
2016-08-12T14:04:36.939Z,20.13
2016-08-12T14:05:31.957Z,20.13